Terminal Aerodrome Forecast
Issued by NWS

Home | Current Version | Previous Version | Text Only | Print | Product List | Glossary On
Versions: 1 2 3 4 5 6 7 8 9 10 11 12 13 14
000
FTUS46 KSEW 242320
TAFPAE
TAF
KPAE 242320Z 2500/2524 33006KT P6SM SCT040 OVC070
     FM250100 36005KT P6SM SCT040 SCT070
     FM251000 20006KT P6SM BKN020 OVC040
     FM252000 22010KT P6SM SCT025 BKN040=

USA.gov is the U.S. government's official web portal to all federal, state and local government web resources and services.